Time;durP1;ratioP1;P1;durP2;ratioP2;P2;SDS_P1;SDS_P2;PMS_P1;PMS_P2;Temp;Humidity;BMP_temperature;BMP_pressure;BME280_temperature;BME280_humidity;BME280_pressure;Samples;Min_cycle;Max_cycle;Signal;HPM_P1;HPM_P2
2022/09/16 00:00:42;;;;;;;14.05;4.43;;;13.20;99.90;;;;;;5063746;28;20071;-70
2022/09/16 00:03:08;;;;;;;16.08;4.05;;;13.20;99.90;;;;;;5063281;28;20021;-69
2022/09/16 00:05:40;;;;;;;12.90;3.47;;;13.10;99.90;;;;;;5061802;28;20458;-69
2022/09/16 00:08:05;;;;;;;11.57;3.88;;;13.00;99.90;;;;;;5054389;28;20032;-70
2022/09/16 00:10:31;;;;;;;16.38;6.45;;;13.00;99.90;;;;;;5063237;28;20055;-70
2022/09/16 00:12:56;;;;;;;6.50;2.40;;;13.00;99.90;;;;;;5061361;28;20320;-70
2022/09/16 00:15:22;;;;;;;12.55;3.78;;;13.00;99.90;;;;;;5060461;28;20098;-68
2022/09/16 00:17:48;;;;;;;11.77;3.03;;;12.90;99.90;;;;;;5058937;28;20068;-69
2022/09/16 00:20:13;;;;;;;10.70;2.80;;;12.90;99.90;;;;;;5057056;28;20041;-70
2022/09/16 00:22:39;;;;;;;10.20;2.40;;;12.90;99.90;;;;;;5056503;28;20025;-70
2022/09/16 00:25:05;;;;;;;13.38;2.10;;;12.90;99.90;;;;;;5060117;28;20378;-70
2022/09/16 00:27:31;;;;;;;4.20;1.20;;;12.80;99.90;;;;;;5055105;28;20033;-70
2022/09/16 00:29:56;;;;;;;11.63;3.45;;;12.80;99.90;;;;;;5049257;28;20033;-70
2022/09/16 00:32:23;;;;;;;6.68;2.53;;;12.80;99.90;;;;;;5053402;28;20025;-70
2022/09/16 00:34:50;;;;;;;6.45;1.88;;;12.80;99.90;;;;;;5053551;28;20064;-70
2022/09/16 00:37:15;;;;;;;5.60;1.70;;;12.80;99.90;;;;;;5053407;28;20107;-69
2022/09/16 00:39:41;;;;;;;5.07;1.67;;;12.80;99.90;;;;;;5053333;28;20171;-70
2022/09/16 00:42:10;;;;;;;8.80;1.92;;;12.80;99.90;;;;;;5053324;28;20036;-70
2022/09/16 00:44:59;;;;;;;7.82;1.42;;;12.80;99.90;;;;;;5048895;28;20029;-70
2022/09/16 00:47:39;;;;;;;6.88;1.67;;;12.70;99.90;;;;;;5053155;28;20182;-70
2022/09/16 00:50:14;;;;;;;4.43;1.52;;;12.70;99.90;;;;;;5053083;28;20037;-70
2022/09/16 00:52:40;;;;;;;8.48;2.47;;;12.70;99.90;;;;;;5053125;28;20032;-70
2022/09/16 00:55:08;;;;;;;3.58;1.23;;;12.70;99.90;;;;;;5052798;28;20021;-70
2022/09/16 00:57:35;;;;;;;12.30;1.98;;;12.80;99.90;;;;;;5052663;28;20402;-70
2022/09/16 01:00:03;;;;;;;6.18;1.58;;;12.80;99.90;;;;;;5050357;28;20045;-70
2022/09/16 01:02:29;;;;;;;4.20;1.50;;;12.90;99.90;;;;;;5052266;28;20509;-70
2022/09/16 01:05:03;;;;;;;5.47;1.77;;;12.90;99.90;;;;;;5052736;28;20029;-70
2022/09/16 01:07:52;;;;;;;5.10;2.42;;;13.00;99.90;;;;;;5052889;28;20049;-70
2022/09/16 01:10:23;;;;;;;4.82;1.38;;;13.00;99.90;;;;;;5051866;28;20393;-70
2022/09/16 01:12:53;;;;;;;4.88;1.73;;;13.10;99.90;;;;;;5052344;28;20371;-70
2022/09/16 01:15:29;;;;;;;12.07;3.58;;;13.10;99.90;;;;;;5052934;28;20257;-71
2022/09/16 01:18:24;;;;;;;17.05;5.20;;;13.20;99.90;;;;;;5050994;28;20033;-70
2022/09/16 01:20:56;;;;;;;18.70;6.72;;;13.20;99.90;;;;;;5041501;28;20070;-70
2022/09/16 01:23:49;;;;;;;15.88;3.88;;;13.30;99.90;;;;;;5052170;28;20033;-70
2022/09/16 01:26:43;;;;;;;8.30;2.28;;;13.30;99.90;;;;;;5051788;28;20367;-69
2022/09/16 01:29:43;;;;;;;6.47;1.80;;;13.40;99.90;;;;;;5052143;28;20032;-69
2022/09/16 01:32:15;;;;;;;12.13;2.38;;;13.50;99.90;;;;;;5052547;28;20033;-68
2022/09/16 01:34:56;;;;;;;9.37;2.70;;;13.50;99.90;;;;;;5052640;28;20021;-69
2022/09/16 01:37:43;;;;;;;9.70;2.83;;;13.40;99.90;;;;;;5049975;28;20462;-69
2022/09/16 01:40:28;;;;;;;9.70;2.92;;;13.30;99.90;;;;;;5047706;28;20405;-69
2022/09/16 01:42:53;;;;;;;10.95;2.10;;;13.30;99.90;;;;;;5051682;28;20115;-69
2022/09/16 01:45:36;;;;;;;11.05;3.40;;;13.20;99.90;;;;;;5052136;28;20143;-68
2022/09/16 01:48:17;;;;;;;10.95;2.30;;;13.10;99.90;;;;;;5052049;28;20025;-68
2022/09/16 01:51:38;;;;;;;14.38;3.85;;;13.00;99.90;;;;;;5052346;28;20441;-68
2022/09/16 01:54:10;;;;;;;6.80;1.88;;;12.90;99.90;;;;;;5009856;28;20025;-69
2022/09/16 01:57:17;;;;;;;12.15;2.65;;;13.00;99.90;;;;;;5009871;28;20037;-69
2022/09/16 02:00:05;;;;;;;13.18;2.58;;;13.00;99.90;;;;;;5039108;28;20045;-69
2022/09/16 02:02:40;;;;;;;10.70;2.42;;;13.10;99.90;;;;;;5036478;28;20037;-70
2022/09/16 02:05:20;;;;;;;11.75;2.35;;;13.10;99.90;;;;;;5048077;28;20063;-70
2022/09/16 02:07:53;;;;;;;11.80;2.88;;;13.10;99.90;;;;;;5052198;28;20037;-70
2022/09/16 02:10:31;;;;;;;6.25;1.90;;;13.20;99.90;;;;;;5051973;28;20076;-68
2022/09/16 02:13:04;;;;;;;11.95;3.42;;;13.20;99.90;;;;;;5052192;28;20036;-69
2022/09/16 02:15:31;;;;;;;;;;;13.20;99.90;;;;;;5052323;28;20025;-69
2022/09/16 02:18:03;;;;;;;6.43;1.95;;;13.20;99.90;;;;;;5051832;28;19909;-69
2022/09/16 02:20:30;;;;;;;18.60;3.50;;;13.20;99.90;;;;;;5052715;28;20482;-69
2022/09/16 02:23:05;;;;;;;8.45;2.75;;;13.10;99.90;;;;;;5049248;28;20067;-69
2022/09/16 02:25:37;;;;;;;13.68;4.10;;;13.10;99.90;;;;;;5055593;28;20440;-69
2022/09/16 02:28:07;;;;;;;12.73;3.47;;;13.10;99.90;;;;;;5055872;28;20025;-69
2022/09/16 02:30:34;;;;;;;12.43;2.65;;;13.10;99.90;;;;;;5055712;28;20047;-69
2022/09/16 02:33:05;;;;;;;8.82;1.98;;;13.10;99.90;;;;;;5055884;28;20036;-69
2022/09/16 02:35:35;;;;;;;4.78;1.30;;;13.20;99.90;;;;;;5056214;28;20032;-68
2022/09/16 02:38:12;;;;;;;5.72;1.33;;;13.20;99.90;;;;;;5055568;28;20119;-69
2022/09/16 02:40:45;;;;;;;8.73;1.73;;;13.10;99.90;;;;;;5052029;28;20037;-69
2022/09/16 02:43:10;;;;;;;10.10;1.77;;;13.10;99.90;;;;;;5055209;28;20040;-69
2022/09/16 02:45:47;;;;;;;6.10;1.58;;;13.00;99.90;;;;;;5055234;28;20021;-69
2022/09/16 02:48:43;;;;;;;10.23;3.40;;;12.90;99.90;;;;;;5055579;28;20441;-69
2022/09/16 02:51:36;;;;;;;6.63;2.55;;;13.00;99.90;;;;;;5050788;28;20037;-69
2022/09/16 02:54:18;;;;;;;7.50;1.65;;;12.90;99.90;;;;;;5046192;28;20029;-69
2022/09/16 02:56:45;;;;;;;11.35;2.33;;;12.90;99.90;;;;;;5055458;28;20029;-69
2022/09/16 02:59:12;;;;;;;9.60;1.98;;;12.80;99.90;;;;;;5053278;28;20170;-69
2022/09/16 03:01:40;;;;;;;8.02;1.77;;;12.70;99.90;;;;;;5050776;28;20032;-69
2022/09/16 03:04:09;;;;;;;8.65;2.65;;;12.70;99.90;;;;;;5043357;28;20033;-69
2022/09/16 03:06:35;;;;;;;6.47;1.77;;;12.60;99.90;;;;;;5054580;28;20025;-69
2022/09/16 03:09:03;;;;;;;6.32;1.90;;;12.60;99.90;;;;;;5051387;28;20561;-69
2022/09/16 03:11:49;;;;;;;11.15;3.72;;;12.60;99.90;;;;;;5048202;28;20029;-68
2022/09/16 03:14:35;;;;;;;10.68;2.28;;;12.60;99.90;;;;;;5048750;28;20079;-68
2022/09/16 03:17:28;;;;;;;3.15;1.20;;;12.60;99.90;;;;;;5035194;28;20441;-68
2022/09/16 03:20:12;;;;;;;5.47;1.20;;;12.70;99.90;;;;;;5035100;28;20033;-68
2022/09/16 03:22:59;;;;;;;6.35;1.60;;;12.70;99.90;;;;;;5040132;28;20033;-68
2022/09/16 03:25:55;;;;;;;9.75;1.92;;;12.80;99.90;;;;;;5038784;28;20034;-67
2022/09/16 03:28:32;;;;;;;12.15;2.08;;;12.80;99.90;;;;;;5035220;28;20133;-68
2022/09/16 03:31:12;;;;;;;3.92;1.02;;;12.90;99.90;;;;;;5034607;28;20025;-69
2022/09/16 03:33:52;;;;;;;10.68;2.42;;;12.90;99.90;;;;;;5036238;28;20033;-69
2022/09/16 03:36:22;;;;;;;6.82;1.50;;;12.90;99.90;;;;;;5034750;28;20046;-68
2022/09/16 03:38:48;;;;;;;6.30;1.00;;;12.90;99.90;;;;;;5034706;28;20124;-68
2022/09/16 03:41:15;;;;;;;6.13;0.90;;;12.80;99.90;;;;;;5034173;28;20026;-68
2022/09/16 03:43:55;;;;;;;8.63;1.92;;;12.80;99.90;;;;;;5035105;28;20029;-68
2022/09/16 03:46:20;;;;;;;7.43;2.05;;;12.80;99.90;;;;;;5048914;28;20037;-68
2022/09/16 03:48:46;;;;;;;7.07;2.53;;;12.80;99.90;;;;;;5045302;28;20469;-68
2022/09/16 03:51:12;;;;;;;10.90;1.95;;;12.80;99.90;;;;;;5054044;28;20170;-68
2022/09/16 03:53:37;;;;;;;5.82;1.52;;;12.80;99.90;;;;;;5035959;28;20087;-69
2022/09/16 03:56:03;;;;;;;8.63;1.23;;;12.90;99.90;;;;;;5035408;28;20037;-67
2022/09/16 03:58:29;;;;;;;7.68;1.63;;;12.90;99.90;;;;;;5034574;28;20034;-67
2022/09/16 04:00:54;;;;;;;9.00;2.00;;;12.90;99.90;;;;;;5034520;28;20030;-69
2022/09/16 04:03:20;;;;;;;6.72;1.75;;;12.90;99.90;;;;;;5040988;28;20025;-69
2022/09/16 04:05:50;;;;;;;12.45;2.95;;;12.90;99.90;;;;;;5038677;28;20052;-68
2022/09/16 04:08:16;;;;;;;8.38;1.63;;;13.00;99.90;;;;;;5052508;28;20474;-68
2022/09/16 04:10:41;;;;;;;8.63;1.23;;;13.10;99.90;;;;;;5044910;28;20049;-67
2022/09/16 04:13:08;;;;;;;3.50;1.33;;;13.20;99.90;;;;;;5037695;28;20029;-67
2022/09/16 04:15:37;;;;;;;8.75;1.50;;;13.10;99.90;;;;;;5041587;28;20033;-68
2022/09/16 04:18:02;;;;;;;9.65;2.30;;;13.10;99.90;;;;;;5036501;28;20375;-68
2022/09/16 04:20:28;;;;;;;8.80;1.70;;;13.00;99.90;;;;;;5053937;28;20041;-67
2022/09/16 04:22:53;;;;;;;9.45;1.70;;;12.90;99.90;;;;;;5046725;28;20039;-68
2022/09/16 04:25:19;;;;;;;8.05;1.70;;;12.80;99.90;;;;;;5034124;28;20033;-68
2022/09/16 04:27:45;;;;;;;6.82;2.17;;;12.80;99.90;;;;;;5053500;28;20080;-68
2022/09/16 04:30:11;;;;;;;10.65;1.88;;;12.80;99.90;;;;;;5051573;28;20435;-67
2022/09/16 04:32:36;;;;;;;6.90;2.28;;;12.90;99.90;;;;;;5040567;28;20787;-69
2022/09/16 04:35:02;;;;;;;6.95;1.17;;;12.90;99.90;;;;;;5050412;28;20068;-68
2022/09/16 04:37:30;;;;;;;10.13;1.40;;;13.00;99.90;;;;;;5052114;28;20064;-68
2022/09/16 04:39:55;;;;;;;6.63;1.70;;;13.00;99.90;;;;;;5041322;28;20034;-68
2022/09/16 04:42:21;;;;;;;9.45;1.52;;;13.00;99.90;;;;;;5033711;28;20036;-68
2022/09/16 04:44:46;;;;;;;7.80;1.58;;;13.00;99.90;;;;;;5041646;28;20170;-68
2022/09/16 04:47:12;;;;;;;7.97;1.25;;;12.90;99.90;;;;;;5034066;28;20086;-69
2022/09/16 04:49:37;;;;;;;5.88;1.20;;;12.90;99.90;;;;;;5034298;28;20051;-69
2022/09/16 04:52:03;;;;;;;11.15;1.25;;;12.80;99.90;;;;;;5033540;28;20096;-68
2022/09/16 04:54:29;;;;;;;5.63;1.00;;;12.70;99.90;;;;;;5045488;28;20128;-69
2022/09/16 04:56:54;;;;;;;5.75;1.00;;;12.70;99.90;;;;;;5049687;28;20033;-68
2022/09/16 04:59:20;;;;;;;10.25;1.60;;;12.60;99.90;;;;;;5046524;28;20126;-68
2022/09/16 05:01:46;;;;;;;3.15;0.82;;;12.60;99.90;;;;;;5033508;28;20033;-69
2022/09/16 05:04:11;;;;;;;8.30;1.20;;;12.60;99.90;;;;;;5042406;28;20132;-68
2022/09/16 05:06:41;;;;;;;8.05;1.25;;;12.60;99.90;;;;;;5047162;28;20055;-68
2022/09/16 05:09:07;;;;;;;8.07;1.58;;;12.70;99.90;;;;;;5033138;28;20053;-68
2022/09/16 05:11:35;;;;;;;5.38;1.27;;;12.70;99.90;;;;;;5033432;28;20470;-68
2022/09/16 05:14:03;;;;;;;4.70;1.23;;;12.70;99.90;;;;;;5046510;28;20033;-68
2022/09/16 05:16:29;;;;;;;12.30;1.42;;;12.70;99.90;;;;;;5040606;28;20033;-68
2022/09/16 05:18:56;;;;;;;7.43;1.10;;;12.70;99.90;;;;;;5049232;28;20106;-68
2022/09/16 05:21:23;;;;;;;9.25;2.03;;;12.60;99.90;;;;;;5052908;28;20025;-68
2022/09/16 05:23:49;;;;;;;5.82;1.27;;;12.60;99.90;;;;;;5037038;28;20037;-67
2022/09/16 05:26:18;;;;;;;4.85;1.20;;;12.50;99.90;;;;;;5032522;28;20051;-67
2022/09/16 05:28:44;;;;;;;8.60;1.23;;;12.50;99.90;;;;;;5037665;28;20050;-67
2022/09/16 05:31:19;;;;;;;9.80;1.15;;;12.50;99.90;;;;;;5046746;28;20371;-67
2022/09/16 05:34:00;;;;;;;5.43;1.10;;;12.50;99.90;;;;;;5044062;28;20037;-68
2022/09/16 05:36:29;;;;;;;5.72;1.20;;;12.50;99.90;;;;;;5048301;28;20064;-68
2022/09/16 05:38:55;;;;;;;2.33;0.90;;;12.50;99.90;;;;;;5045311;28;20033;-68
2022/09/16 05:41:21;;;;;;;5.68;1.10;;;12.50;99.90;;;;;;5042043;28;20029;-68
2022/09/16 05:43:47;;;;;;;9.60;2.00;;;12.60;99.90;;;;;;5041053;28;20090;-68
2022/09/16 05:46:19;;;;;;;5.97;0.90;;;12.60;99.90;;;;;;5047555;28;20379;-67
2022/09/16 05:48:46;;;;;;;7.28;1.00;;;12.70;99.90;;;;;;5050829;28;20116;-69
2022/09/16 05:51:17;;;;;;;10.32;1.02;;;12.70;99.90;;;;;;5033216;28;20029;-68
2022/09/16 05:53:44;;;;;;;5.18;0.90;;;12.70;99.90;;;;;;5043986;28;20041;-68
2022/09/16 05:56:12;;;;;;;11.38;1.85;;;12.70;99.90;;;;;;5051971;28;20106;-69
2022/09/16 05:58:38;;;;;;;4.85;1.25;;;12.70;99.90;;;;;;5047168;28;20044;-68
2022/09/16 06:01:07;;;;;;;8.35;1.10;;;12.60;99.90;;;;;;5043701;28;20040;-68
2022/09/16 06:03:34;;;;;;;9.27;1.70;;;12.60;99.90;;;;;;5032435;28;20036;-68
2022/09/16 06:06:04;;;;;;;8.90;1.33;;;12.60;99.90;;;;;;5032103;28;20056;-67
2022/09/16 06:08:31;;;;;;;8.45;1.58;;;12.50;99.90;;;;;;5043652;28;20064;-67
2022/09/16 06:11:01;;;;;;;13.68;2.33;;;12.50;99.90;;;;;;5043503;28;20136;-68
2022/09/16 06:13:27;;;;;;;10.05;2.42;;;12.40;99.90;;;;;;5036351;28;20030;-67
2022/09/16 06:15:53;;;;;;;9.20;2.53;;;12.40;99.90;;;;;;5039440;28;20211;-67
2022/09/16 06:18:20;;;;;;;9.48;2.25;;;12.40;99.90;;;;;;5047152;28;20114;-67
2022/09/16 06:20:46;;;;;;;5.32;1.55;;;12.40;99.90;;;;;;5032185;28;20087;-67
2022/09/16 06:23:12;;;;;;;6.30;1.52;;;12.40;99.90;;;;;;5034384;28;20033;-68
2022/09/16 06:25:38;;;;;;;6.10;1.50;;;12.40;99.90;;;;;;5034697;28;20040;-67
2022/09/16 06:28:04;;;;;;;6.55;0.88;;;12.50;99.90;;;;;;5032238;28;20033;-68
2022/09/16 06:30:30;;;;;;;6.05;1.58;;;12.50;99.90;;;;;;5034520;28;20030;-67
2022/09/16 06:32:56;;;;;;;3.00;1.02;;;12.60;99.90;;;;;;5040498;28;20040;-68
2022/09/16 06:35:21;;;;;;;7.25;1.48;;;12.70;99.90;;;;;;5040663;28;20442;-68
2022/09/16 06:37:47;;;;;;;7.53;2.15;;;12.70;99.90;;;;;;5040123;28;20465;-68
2022/09/16 06:40:13;;;;;;;7.05;1.55;;;12.80;99.90;;;;;;5034540;28;20128;-68
2022/09/16 06:42:38;;;;;;;4.05;1.75;;;12.90;99.90;;;;;;5046108;28;20032;-68
2022/09/16 06:45:05;;;;;;;5.20;0.95;;;13.00;99.90;;;;;;5050561;28;20023;-68
2022/09/16 06:47:32;;;;;;;8.00;1.60;;;13.10;99.90;;;;;;5046626;28;20033;-69
2022/09/16 06:49:58;;;;;;;8.57;1.80;;;13.30;99.90;;;;;;5031804;28;20030;-68
2022/09/16 06:52:24;;;;;;;5.68;1.02;;;13.50;99.90;;;;;;5051128;28;20067;-68
2022/09/16 06:54:49;;;;;;;10.18;1.63;;;13.70;99.90;;;;;;5050322;28;20061;-68
2022/09/16 06:57:17;;;;;;;5.35;1.13;;;14.00;99.90;;;;;;5051413;28;20063;-69
2022/09/16 06:59:42;;;;;;;7.90;1.30;;;14.30;99.90;;;;;;5041802;28;20480;-68
2022/09/16 07:02:09;;;;;;;8.68;1.50;;;14.40;99.90;;;;;;5045349;28;20043;-67
2022/09/16 07:04:35;;;;;;;8.50;1.98;;;14.50;99.90;;;;;;5051614;28;20071;-67
2022/09/16 07:07:00;;;;;;;8.10;1.20;;;14.40;99.90;;;;;;5040540;28;20028;-68
2022/09/16 07:09:26;;;;;;;12.48;1.25;;;14.20;99.90;;;;;;5053399;28;20080;-68
2022/09/16 07:11:51;;;;;;;9.57;2.28;;;13.90;99.90;;;;;;5054970;28;20044;-67
2022/09/16 07:14:17;;;;;;;9.70;1.95;;;13.50;99.90;;;;;;5040589;28;20075;-69
2022/09/16 07:16:43;;;;;;;8.10;1.13;;;13.30;99.90;;;;;;5043377;28;20029;-69
2022/09/16 07:19:08;;;;;;;9.82;2.35;;;13.00;99.90;;;;;;5042258;28;20041;-70
2022/09/16 07:21:34;;;;;;;15.80;1.58;;;12.80;99.90;;;;;;5035180;28;20577;-69
2022/09/16 07:24:01;;;;;;;4.78;1.38;;;12.70;99.90;;;;;;5034769;28;20459;-69
2022/09/16 07:26:36;;;;;;;9.65;2.13;;;12.70;99.90;;;;;;5035135;28;20032;-69
2022/09/16 07:29:03;;;;;;;7.25;1.63;;;12.80;99.90;;;;;;5034929;28;20128;-68
2022/09/16 07:31:31;;;;;;;8.68;1.55;;;12.80;99.90;;;;;;5035266;28;20029;-69
2022/09/16 07:34:00;;;;;;;7.68;1.85;;;12.90;99.90;;;;;;5051623;28;20025;-69
2022/09/16 07:36:28;;;;;;;9.27;1.70;;;12.90;99.90;;;;;;5046198;28;20045;-68
2022/09/16 07:38:57;;;;;;;9.45;1.65;;;13.30;99.90;;;;;;5034888;28;20033;-68
2022/09/16 07:41:27;;;;;;;7.32;1.75;;;14.10;99.90;;;;;;5034710;28;20045;-67
2022/09/16 07:43:57;;;;;;;10.85;1.30;;;15.30;99.90;;;;;;5034500;28;20040;-68
2022/09/16 07:46:24;;;;;;;10.48;1.70;;;16.70;99.90;;;;;;5034949;28;20116;-68
2022/09/16 07:48:50;;;;;;;7.47;1.70;;;17.80;99.90;;;;;;5033203;28;20801;-68
2022/09/16 07:51:18;;;;;;;9.93;2.05;;;18.60;99.90;;;;;;5034546;28;20462;-68
2022/09/16 07:53:44;;;;;;;6.72;1.92;;;18.70;99.90;;;;;;5034742;28;20021;-69
2022/09/16 07:56:18;;;;;;;14.70;3.22;;;18.40;99.90;;;;;;5034835;28;20037;-69
2022/09/16 07:58:45;;;;;;;9.27;2.47;;;18.20;99.90;;;;;;5048992;28;20028;-68
2022/09/16 08:01:13;;;;;;;7.60;1.88;;;18.10;99.90;;;;;;5048017;28;20568;-69
2022/09/16 08:03:39;;;;;;;10.95;2.15;;;18.30;99.90;;;;;;5050040;28;20048;-68
2022/09/16 08:06:09;;;;;;;8.32;1.95;;;18.40;99.90;;;;;;5059374;28;20048;-69
2022/09/16 08:08:35;;;;;;;4.70;1.13;;;18.10;99.90;;;;;;5059214;28;20033;-68
2022/09/16 08:11:01;;;;;;;5.05;1.23;;;17.60;99.90;;;;;;5060243;28;20032;-68
2022/09/16 08:13:29;;;;;;;5.05;1.42;;;17.10;99.90;;;;;;5062522;28;20032;-69
2022/09/16 08:16:00;;;;;;;5.97;0.95;;;16.80;99.90;;;;;;5058843;28;20060;-69
2022/09/16 08:18:25;;;;;;;6.07;1.38;;;17.30;99.90;;;;;;5057776;28;20040;-68
2022/09/16 08:20:51;;;;;;;6.07;1.58;;;18.40;99.90;;;;;;5057818;28;20041;-67
2022/09/16 08:23:17;;;;;;;3.53;1.05;;;19.60;99.50;;;;;;5049909;28;20029;-68
2022/09/16 08:25:42;;;;;;;3.70;1.25;;;19.80;98.30;;;;;;5052921;28;20025;-67
2022/09/16 08:28:16;;;;;;;11.40;2.47;;;19.30;99.10;;;;;;5053491;28;20029;-68
2022/09/16 08:30:42;;;;;;;7.63;2.25;;;18.60;99.90;;;;;;5053440;28;20028;-67
2022/09/16 08:33:09;;;;;;;5.80;1.38;;;17.90;99.90;;;;;;5053737;28;20113;-69
2022/09/16 08:35:35;;;;;;;9.75;3.08;;;17.40;99.90;;;;;;5053625;28;20025;-68
2022/09/16 08:38:01;;;;;;;8.77;3.00;;;17.20;99.90;;;;;;5052219;28;20033;-67
2022/09/16 08:40:32;;;;;;;5.22;1.35;;;17.10;99.90;;;;;;5053493;28;20040;-68
2022/09/16 08:43:00;;;;;;;5.68;0.93;;;16.90;99.90;;;;;;5052577;28;20031;-68
2022/09/16 08:45:47;;;;;;;7.15;2.05;;;17.00;99.90;;;;;;5053576;28;20474;-68
2022/09/16 08:48:21;;;;;;;6.15;1.30;;;17.60;99.90;;;;;;5053149;28;20120;-68
2022/09/16 08:50:47;;;;;;;7.47;1.33;;;19.30;99.90;;;;;;5053365;28;20025;-68
2022/09/16 08:53:27;;;;;;;9.43;1.63;;;21.50;99.90;;;;;;5052764;28;20055;-69
2022/09/16 08:55:53;;;;;;;12.43;3.83;;;22.90;99.90;;;;;;5053153;28;20142;-68
2022/09/16 08:58:31;;;;;;;10.13;3.10;;;23.00;97.90;;;;;;5053303;28;20029;-68
2022/09/16 09:01:02;;;;;;;8.48;1.90;;;22.50;97.50;;;;;;5052862;28;20041;-68
2022/09/16 09:03:40;;;;;;;10.13;3.00;;;21.80;98.10;;;;;;5052985;28;20033;-68
2022/09/16 09:06:33;;;;;;;9.63;2.90;;;21.20;99.30;;;;;;5052481;28;20048;-68
2022/09/16 09:09:31;;;;;;;8.05;1.38;;;20.70;99.90;;;;;;5052675;28;20053;-69
2022/09/16 09:12:15;;;;;;;10.80;2.60;;;20.40;99.90;;;;;;5052764;28;20104;-68
2022/09/16 09:14:59;;;;;;;9.20;2.03;;;19.60;99.60;;;;;;5052942;28;20025;-69
2022/09/16 09:17:51;;;;;;;14.75;2.20;;;18.60;99.90;;;;;;5052884;28;20033;-68
2022/09/16 09:20:28;;;;;;;7.43;2.23;;;17.80;99.90;;;;;;5052833;28;20048;-68
2022/09/16 09:23:12;;;;;;;10.98;2.55;;;17.20;99.90;;;;;;5052959;28;20246;-68
2022/09/16 09:25:47;;;;;;;6.80;1.33;;;16.80;99.90;;;;;;5049247;28;20029;-68
2022/09/16 09:28:41;;;;;;;7.38;2.33;;;16.70;99.90;;;;;;5032572;28;20025;-68
2022/09/16 09:31:34;;;;;;;5.32;1.52;;;16.80;99.90;;;;;;5032316;28;20079;-68
2022/09/16 09:34:15;;;;;;;6.90;1.70;;;17.90;99.90;;;;;;5032915;28;20030;-68
2022/09/16 09:37:05;;;;;;;5.82;1.52;;;18.80;99.90;;;;;;5033043;28;20021;-68
2022/09/16 09:39:46;;;;;;;4.32;1.08;;;18.90;99.20;;;;;;5032823;28;20732;-68
2022/09/16 09:42:23;;;;;;;6.50;1.35;;;18.60;98.60;;;;;;5032442;28;20036;-68
2022/09/16 09:45:12;;;;;;;5.40;1.20;;;18.30;99.00;;;;;;5032432;28;20037;-68
2022/09/16 09:47:46;;;;;;;11.88;2.22;;;18.10;99.40;;;;;;5032729;28;20072;-68
2022/09/16 09:50:15;;;;;;;11.15;1.85;;;18.00;99.50;;;;;;5032595;28;20037;-66
2022/09/16 09:53:10;;;;;;;8.32;1.13;;;17.90;99.90;;;;;;5032185;28;20117;-68
2022/09/16 09:55:37;;;;;;;12.18;2.50;;;17.40;99.90;;;;;;5045482;28;20036;-68
2022/09/16 09:58:27;;;;;;;4.60;1.05;;;16.90;99.90;;;;;;5052392;28;20033;-68
2022/09/16 10:00:54;;;;;;;5.25;1.40;;;16.40;99.90;;;;;;5052231;28;20367;-68
2022/09/16 10:03:20;;;;;;;4.03;1.25;;;16.00;99.90;;;;;;5052402;28;20108;-68
2022/09/16 10:05:47;;;;;;;5.18;1.40;;;15.70;99.90;;;;;;5052390;28;20195;-67
2022/09/16 10:08:29;;;;;;;7.38;1.40;;;15.60;99.90;;;;;;5052274;28;20386;-68
2022/09/16 10:11:13;;;;;;;9.13;1.60;;;15.50;99.90;;;;;;5051861;28;20135;-68
2022/09/16 10:13:47;;;;;;;10.68;1.63;;;15.50;99.90;;;;;;5052408;28;20033;-68
2022/09/16 10:16:20;;;;;;;7.35;1.20;;;15.20;99.90;;;;;;5052203;28;20539;-69
2022/09/16 10:19:18;;;;;;;5.07;1.20;;;14.90;99.90;;;;;;5051967;28;20036;-69
2022/09/16 10:21:46;;;;;;;9.50;1.70;;;14.60;99.90;;;;;;5052107;28;20025;-68
2022/09/16 10:24:39;;;;;;;9.02;1.92;;;14.40;99.90;;;;;;5052121;28;20074;-69
2022/09/16 10:27:22;;;;;;;7.25;1.75;;;14.20;99.90;;;;;;5050225;28;20036;-69
2022/09/16 10:30:01;;;;;;;9.30;1.30;;;14.00;99.90;;;;;;5051799;28;20068;-69
2022/09/16 10:32:27;;;;;;;10.43;1.85;;;13.90;99.90;;;;;;5052018;28;20139;-69
2022/09/16 10:34:53;;;;;;;8.63;2.85;;;13.80;99.90;;;;;;5051455;28;20469;-69
2022/09/16 10:37:19;;;;;;;13.40;1.52;;;13.80;99.90;;;;;;5051900;28;20033;-68
2022/09/16 10:39:52;;;;;;;9.60;1.98;;;13.70;99.90;;;;;;5052078;28;20041;-69
2022/09/16 10:42:23;;;;;;;12.15;2.38;;;13.80;99.90;;;;;;5053802;28;20033;-68
2022/09/16 10:44:51;;;;;;;12.73;2.03;;;14.00;99.90;;;;;;5055796;28;20029;-68
2022/09/16 10:47:21;;;;;;;8.63;2.13;;;14.30;99.90;;;;;;5055602;28;20067;-68
2022/09/16 10:49:55;;;;;;;15.02;3.35;;;14.60;99.90;;;;;;5055687;28;20040;-68
2022/09/16 10:52:24;;;;;;;11.88;1.67;;;14.90;99.90;;;;;;5055610;28;20029;-69
2022/09/16 10:54:50;;;;;;;12.77;3.22;;;15.10;99.90;;;;;;5055516;28;20481;-69
2022/09/16 10:57:35;;;;;;;12.70;2.90;;;15.30;99.90;;;;;;5055655;28;20033;-69
2022/09/16 11:00:07;;;;;;;11.55;1.88;;;15.90;99.90;;;;;;5055344;28;20036;-70
2022/09/16 11:02:43;;;;;;;10.77;1.83;;;17.00;99.90;;;;;;5055309;28;20550;-69
2022/09/16 11:05:32;;;;;;;11.15;1.60;;;18.00;99.90;;;;;;5055327;28;20033;-68
2022/09/16 11:08:09;;;;;;;10.13;1.48;;;18.60;99.90;;;;;;5055496;28;20032;-69
2022/09/16 11:10:44;;;;;;;8.55;1.63;;;18.80;99.90;;;;;;5054984;28;20136;-69
2022/09/16 11:13:31;;;;;;;6.82;1.20;;;19.10;99.00;;;;;;5055003;28;20036;-68
2022/09/16 11:16:05;;;;;;;10.77;1.42;;;19.00;99.40;;;;;;5055038;28;20090;-69
2022/09/16 11:18:34;;;;;;;11.32;1.90;;;18.70;98.70;;;;;;5055298;28;20021;-68
2022/09/16 11:21:23;;;;;;;6.95;1.30;;;18.50;99.60;;;;;;5053265;28;20037;-69
2022/09/16 11:24:08;;;;;;;9.43;2.17;;;18.60;99.90;;;;;;5055114;28;20029;-68
2022/09/16 11:27:01;;;;;;;11.98;1.85;;;19.60;99.30;;;;;;5054978;28;20029;-68
2022/09/16 11:29:58;;;;;;;7.57;1.30;;;20.90;97.60;;;;;;5054698;28;20037;-69
2022/09/16 11:32:45;;;;;;;6.70;1.25;;;22.10;94.60;;;;;;5053414;28;20037;-68
2022/09/16 11:36:25;;;;;;;10.40;1.55;;;22.60;93.10;;;;;;5054335;28;20029;-68
2022/09/16 11:39:11;;;;;;;9.55;1.80;;;22.60;92.50;;;;;;4954292;29;20027;-68
2022/09/16 11:41:41;;;;;;;9.80;1.52;;;22.30;92.30;;;;;;4990550;28;20487;-68
2022/09/16 11:44:19;;;;;;;6.13;1.52;;;22.50;90.50;;;;;;5047057;28;20029;-68
2022/09/16 11:47:06;;;;;;;8.38;1.50;;;23.00;88.70;;;;;;5054367;28;20041;-68
2022/09/16 11:49:50;;;;;;;2.83;0.85;;;22.80;86.10;;;;;;5054700;28;20496;-68
2022/09/16 11:52:44;;;;;;;6.90;1.85;;;22.50;87.30;;;;;;5054489;28;20025;-69
2022/09/16 11:55:49;;;;;;;11.07;1.75;;;22.40;87.70;;;;;;5054492;28;20021;-69
2022/09/16 11:58:28;;;;;;;6.60;0.90;;;22.00;88.30;;;;;;5053707;28;20076;-68
2022/09/16 12:00:59;;;;;;;7.25;1.60;;;21.50;87.90;;;;;;5054161;28;20040;-69
2022/09/16 12:03:31;;;;;;;10.43;1.58;;;21.10;89.70;;;;;;5054170;28;20025;-68
2022/09/16 12:06:10;;;;;;;5.28;1.25;;;21.00;90.20;;;;;;5054510;28;20075;-68
2022/09/16 12:08:58;;;;;;;10.13;1.55;;;21.40;88.70;;;;;;5053849;28;20537;-68
2022/09/16 12:11:44;;;;;;;8.32;1.27;;;22.00;87.10;;;;;;5039201;28;20025;-69
2022/09/16 12:14:19;;;;;;;5.50;1.15;;;22.60;88.10;;;;;;5054188;28;20025;-69
2022/09/16 12:16:47;;;;;;;6.18;1.50;;;23.10;84.60;;;;;;5054273;28;20496;-68
2022/09/16 12:19:35;;;;;;;4.45;1.10;;;23.20;84.50;;;;;;5054301;28;20041;-69
2022/09/16 12:22:09;;;;;;;7.55;1.15;;;23.40;82.00;;;;;;5054079;28;20062;-69
2022/09/16 12:25:03;;;;;;;11.90;1.90;;;23.30;83.40;;;;;;5054077;28;20029;-69
2022/09/16 12:27:52;;;;;;;8.90;2.17;;;23.10;84.10;;;;;;5050381;28;20044;-68
2022/09/16 12:30:24;;;;;;;8.07;1.30;;;22.70;82.50;;;;;;5053604;28;20037;-69
2022/09/16 12:33:09;;;;;;;11.05;2.15;;;22.80;83.60;;;;;;5053335;28;20095;-69
2022/09/16 12:36:14;;;;;;;10.50;3.15;;;22.90;82.90;;;;;;5053044;28;20116;-68
2022/09/16 12:38:39;;;;;;;12.85;5.15;;;22.80;83.20;;;;;;5053893;28;20059;-69
2022/09/16 12:41:28;;;;;;;10.98;3.17;;;23.00;84.10;;;;;;5053641;28;20068;-69
2022/09/16 12:44:29;;;;;;;10.45;2.63;;;23.10;81.90;;;;;;5053703;28;20040;-69
2022/09/16 12:47:04;;;;;;;10.38;2.28;;;22.90;82.70;;;;;;5052262;28;20521;-69
2022/09/16 12:49:52;;;;;;;10.32;3.10;;;22.50;84.70;;;;;;5051663;28;20036;-69
2022/09/16 12:52:28;;;;;;;14.77;2.70;;;22.20;85.80;;;;;;5047581;28;20120;-69
2022/09/16 12:55:06;;;;;;;13.38;2.70;;;21.90;85.90;;;;;;5053003;28;20029;-69
2022/09/16 12:57:50;;;;;;;9.30;2.90;;;21.70;87.00;;;;;;5052995;28;20547;-69
2022/09/16 13:00:37;;;;;;;7.22;1.90;;;21.60;88.30;;;;;;5052812;28;20672;-69
2022/09/16 13:03:17;;;;;;;10.85;3.35;;;21.50;88.30;;;;;;5052128;28;20025;-68
2022/09/16 13:05:47;;;;;;;8.65;1.85;;;21.50;87.50;;;;;;5052232;28;20110;-68
2022/09/16 13:08:30;;;;;;;10.38;2.78;;;21.40;88.30;;;;;;5053064;28;20033;-68
2022/09/16 13:11:14;;;;;;;9.25;2.47;;;21.10;88.70;;;;;;5053211;28;20499;-68
2022/09/16 13:13:41;;;;;;;8.98;1.55;;;21.10;88.50;;;;;;5053182;28;20126;-69
2022/09/16 13:16:08;;;;;;;13.38;2.10;;;21.10;88.40;;;;;;5048701;28;20029;-69